Time;durP1;ratioP1;P1;durP2;ratioP2;P2;SDS_P1;SDS_P2;PMS_P1;PMS_P2;Temp;Humidity;BMP_temperature;BMP_pressure;BME280_temperature;BME280_humidity;BME280_pressure;Samples;Min_cycle;Max_cycle;Signal;HPM_P1;HPM_P2
2023/06/19 00:07:13;;;;;;;9.77;4.25;;;;;;;21.53;100.00;100870.09;20984221;28;20098;-81
2023/06/19 00:17:38;;;;;;;12.52;6.07;;;;;;;21.58;100.00;100864.59;20969233;28;20071;-82
2023/06/19 00:28:02;;;;;;;11.02;6.35;;;;;;;21.52;100.00;100856.72;20978960;28;20049;-82
2023/06/19 00:38:26;;;;;;;15.68;6.57;;;;;;;21.35;100.00;100868.78;20969204;28;20049;-82
2023/06/19 00:48:50;;;;;;;12.80;6.85;;;;;;;21.25;100.00;100863.72;20979941;28;20563;-82
2023/06/19 00:59:17;;;;;;;11.68;6.53;;;;;;;21.28;100.00;100867.19;20957595;28;20056;-81
2023/06/19 01:09:47;;;;;;;12.70;6.95;;;;;;;21.30;100.00;100880.59;20977038;28;20037;-81
2023/06/19 01:19:50;;;;;;;11.00;5.53;;;;;;;21.20;100.00;100871.88;20988969;28;20048;-81
2023/06/19 01:30:15;;;;;;;11.73;5.00;;;;;;;21.13;100.00;100872.06;20974186;28;20053;-82
2023/06/19 01:40:39;;;;;;;7.32;3.97;;;;;;;21.07;100.00;100867.72;20976101;28;20071;-80
2023/06/19 01:51:04;;;;;;;9.65;4.45;;;;;;;21.10;100.00;100867.66;20984513;28;20041;-81
2023/06/19 02:01:26;;;;;;;7.65;4.07;;;;;;;21.01;100.00;100882.19;20970922;28;20051;-81
2023/06/19 02:11:52;;;;;;;10.43;4.05;;;;;;;20.89;100.00;100876.25;20990532;28;20075;-83
2023/06/19 02:21:55;;;;;;;5.63;3.97;;;;;;;20.84;100.00;100867.44;21005827;28;20056;-81
2023/06/19 02:32:19;;;;;;;9.20;4.25;;;;;;;20.87;100.00;100895.06;20973156;28;20040;-81
2023/06/19 02:42:41;;;;;;;8.73;4.15;;;;;;;20.86;100.00;100903.16;20985510;28;20144;-81
2023/06/19 02:53:06;;;;;;;9.23;4.68;;;;;;;20.88;100.00;100895.94;20994952;28;20052;-81
2023/06/19 03:03:29;;;;;;;11.00;4.15;;;;;;;20.83;100.00;100906.81;20974197;28;20048;-80
2023/06/19 03:13:54;;;;;;;8.80;4.75;;;;;;;20.91;100.00;100895.88;20971639;28;20047;-80
2023/06/19 03:24:17;;;;;;;9.00;4.50;;;;;;;20.90;100.00;100921.84;20998154;28;20052;-81
2023/06/19 03:34:41;;;;;;;11.55;4.40;;;;;;;21.04;100.00;100935.81;21014462;28;20413;-81
2023/06/19 03:45:06;;;;;;;8.00;4.20;;;;;;;21.31;100.00;100938.75;20970827;28;20051;-81
2023/06/19 03:55:33;;;;;;;10.00;3.83;;;;;;;21.61;100.00;100939.75;20965162;28;20051;-81
2023/06/19 04:05:56;;;;;;;8.40;3.80;;;;;;;21.93;100.00;100930.78;20965020;28;20094;-81
2023/06/19 04:16:21;;;;;;;8.73;3.00;;;;;;;22.25;100.00;100928.97;20994883;28;20056;-81
2023/06/19 04:26:44;;;;;;;7.35;3.60;;;;;;;22.51;100.00;100909.31;20955202;28;20562;-81
2023/06/19 04:37:08;;;;;;;6.22;3.30;;;;;;;23.04;100.00;100931.00;20984369;28;20098;-81
2023/06/19 04:47:30;;;;;;;5.75;3.08;;;;;;;23.36;100.00;100924.53;20984701;28;20094;-81
2023/06/19 04:57:56;;;;;;;6.38;2.70;;;;;;;23.71;100.00;100926.00;20957289;28;20511;-82
2023/06/19 05:08:18;;;;;;;5.93;2.50;;;;;;;24.00;100.00;100930.34;20968304;28;20052;-81
2023/06/19 05:18:43;;;;;;;4.63;2.35;;;;;;;24.49;100.00;100946.47;20955109;28;20062;-81
2023/06/19 05:29:08;;;;;;;10.55;2.40;;;;;;;24.32;100.00;100956.16;20927367;28;20686;-81
2023/06/19 05:39:32;;;;;;;7.00;2.88;;;;;;;24.95;100.00;100959.06;20954879;28;20052;-81
2023/06/19 05:49:55;;;;;;;6.90;2.30;;;;;;;25.36;100.00;100976.25;20941133;28;20083;-82
2023/06/19 06:00:20;;;;;;;6.68;2.58;;;;;;;25.82;100.00;100984.25;20968440;28;20053;-81
2023/06/19 06:10:42;;;;;;;7.93;2.40;;;;;;;26.16;100.00;100988.09;20960212;28;20052;-80
2023/06/19 06:21:06;;;;;;;3.70;1.92;;;;;;;27.11;100.00;100999.97;20980305;28;20052;-81
2023/06/19 06:31:29;;;;;;;6.75;1.88;;;;;;;27.42;100.00;101011.03;20970950;28;20072;-80
2023/06/19 06:41:54;;;;;;;5.45;2.05;;;;;;;28.07;100.00;101006.78;20962180;28;20048;-82
2023/06/19 06:52:16;;;;;;;4.53;2.10;;;;;;;28.43;100.00;100991.25;20968168;28;20032;-84
2023/06/19 07:02:41;;;;;;;3.58;1.88;;;;;;;28.26;100.00;101018.44;20966888;28;20110;-86
2023/06/19 07:13:04;;;;;;;3.67;1.95;;;;;;;27.71;100.00;100996.88;20977585;28;20064;-81
2023/06/19 07:23:28;;;;;;;6.45;1.90;;;;;;;28.22;100.00;100999.69;20982476;28;20055;-82
2023/06/19 07:33:50;;;;;;;4.05;1.83;;;;;;;29.06;100.00;101004.06;20980173;28;20052;-82
2023/06/19 07:44:17;;;;;;;4.40;1.70;;;;;;;29.14;100.00;101019.00;20969802;28;20060;-81
2023/06/19 07:54:51;;;;;;;6.32;1.70;;;;;;;29.74;100.00;101032.69;20961531;28;20384;-82
2023/06/19 08:05:17;;;;;;;3.50;1.77;;;;;;;30.17;100.00;101032.88;20960725;28;20055;-82
2023/06/19 08:15:40;;;;;;;5.10;2.15;;;;;;;30.08;100.00;101043.34;20983715;28;20059;-80
2023/06/19 08:26:02;;;;;;;3.08;1.45;;;;;;;29.84;100.00;101036.66;20974793;28;20048;-76
2023/06/19 08:36:24;;;;;;;5.65;1.80;;;;;;;28.78;100.00;101049.13;20968035;28;20637;-75
2023/06/19 08:46:48;;;;;;;4.60;2.08;;;;;;;28.84;100.00;101051.50;20962329;28;20150;-76
2023/06/19 08:57:12;;;;;;;6.45;2.10;;;;;;;29.14;100.00;101051.63;20956903;28;20126;-76
2023/06/19 09:07:36;;;;;;;4.30;1.95;;;;;;;29.43;100.00;101046.38;20956694;28;20045;-77
2023/06/19 09:18:03;;;;;;;5.03;1.80;;;;;;;30.01;100.00;101047.41;20976389;28;20051;-76
2023/06/19 09:28:29;;;;;;;3.70;1.77;;;;;;;30.41;100.00;101056.75;20956966;28;20459;-83
2023/06/19 09:38:55;;;;;;;6.57;2.00;;;;;;;30.51;100.00;101038.00;20976786;28;20377;-85
2023/06/19 09:49:24;;;;;;;3.95;2.10;;;;;;;30.84;96.24;101035.88;20991788;28;20047;-84
2023/06/19 09:59:50;;;;;;;5.07;2.22;;;;;;;31.35;89.11;101066.19;21001190;28;20085;-82
2023/06/19 10:10:26;;;;;;;6.20;2.20;;;;;;;31.73;83.83;101062.78;20965915;28;20543;-82
2023/06/19 10:20:48;;;;;;;6.40;2.30;;;;;;;31.42;83.60;101056.63;20972886;28;20799;-79
2023/06/19 10:30:56;;;;;;;6.47;2.50;;;;;;;31.53;80.62;101040.41;20982634;28;20047;-82
2023/06/19 10:41:19;;;;;;;5.88;2.63;;;;;;;31.56;74.72;101044.78;20970912;28;20048;-82
2023/06/19 10:51:43;;;;;;;5.60;2.85;;;;;;;31.41;71.86;101038.50;20993717;28;20560;-82
2023/06/19 11:02:07;;;;;;;6.37;3.07;;;;;;;31.09;69.91;101042.47;20979341;28;20140;-82
2023/06/19 11:12:32;;;;;;;5.65;3.15;;;;;;;31.76;72.92;101046.22;20979438;28;20087;-82
2023/06/19 11:22:40;;;;;;;5.18;3.10;;;;;;;31.85;67.07;101035.50;20979406;28;20087;-81
2023/06/19 11:33:05;;;;;;;7.43;3.20;;;;;;;31.72;68.14;101034.59;20962435;28;20447;-81
2023/06/19 11:43:28;;;;;;;6.97;3.10;;;;;;;31.40;71.68;101046.78;20946060;28;20099;-80
2023/06/19 11:53:53;;;;;;;7.45;3.08;;;;;;;31.12;70.77;101051.31;20932603;28;20060;-80
2023/06/19 12:04:16;;;;;;;9.45;3.50;;;;;;;31.24;68.11;101050.50;20959994;28;20056;-81
2023/06/19 12:14:40;;;;;;;5.68;3.50;;;;;;;31.33;67.81;101031.78;20957286;28;20138;-81
2023/06/19 12:25:03;;;;;;;10.05;3.45;;;;;;;31.58;66.62;101034.63;20957198;28;20605;-81
2023/06/19 12:35:27;;;;;;;5.28;3.67;;;;;;;31.99;61.36;101027.25;20957126;28;20117;-82
2023/06/19 12:45:50;;;;;;;7.78;3.35;;;;;;;31.90;61.81;101013.38;20940902;28;20052;-82
2023/06/19 12:55:54;;;;;;;6.10;3.20;;;;;;;32.30;62.97;101020.53;20946816;28;20131;-81
2023/06/19 13:06:18;;;;;;;4.88;3.58;;;;;;;32.27;59.81;101028.94;20966288;28;20131;-79
2023/06/19 13:16:25;;;;;;;;;;;;;;;32.01;55.02;101019.81;20977117;28;20641;-81
2023/06/19 13:26:47;;;;;;;;;;;;;;;31.83;56.32;101010.19;21010641;28;20026;-81
2023/06/19 13:37:12;;;;;;;8.57;3.35;;;;;;;31.45;56.07;101020.91;20995842;28;19923;-81
2023/06/19 13:47:35;;;;;;;6.40;3.58;;;;;;;31.18;57.97;101026.38;21048176;28;20445;-80
2023/06/19 13:58:00;;;;;;;6.10;3.55;;;;;;;31.39;57.69;101026.78;21077085;28;20396;-81
2023/06/19 14:08:08;;;;;;;7.10;3.72;;;;;;;31.57;56.10;101006.44;21028698;28;20052;-83
2023/06/19 14:18:12;;;;;;;6.85;3.63;;;;;;;31.32;54.85;101010.94;21022219;28;20060;-81
2023/06/19 14:28:35;;;;;;;5.22;3.88;;;;;;;31.56;55.05;100991.06;20992248;28;20595;-82
2023/06/19 14:38:59;;;;;;;6.32;3.97;;;;;;;31.35;54.64;100991.63;21001716;28;20060;-82
2023/06/19 14:49:22;;;;;;;7.30;3.72;;;;;;;31.20;52.66;100988.06;20973510;28;20060;-81
2023/06/19 14:59:47;;;;;;;7.20;3.67;;;;;;;30.82;54.41;100987.84;21000225;28;20047;-83
2023/06/19 15:10:10;;;;;;;5.40;3.58;;;;;;;30.28;55.29;100989.47;21073521;28;20451;-83
2023/06/19 15:20:35;;;;;;;7.10;4.10;;;;;;;29.71;58.68;100992.06;20975577;28;20417;-81
2023/06/19 15:30:58;;;;;;;7.07;4.10;;;;;;;29.49;60.47;100997.91;21030343;28;20040;-81
2023/06/19 15:41:23;;;;;;;7.55;4.03;;;;;;;28.81;64.21;101001.88;21058173;28;20519;-83
2023/06/19 15:51:47;;;;;;;8.55;5.07;;;;;;;28.24;68.91;101006.78;21058180;28;20051;-83
2023/06/19 16:02:11;;;;;;;6.45;4.30;;;;;;;27.85;74.07;101017.88;21047516;28;20082;-81
2023/06/19 16:12:34;;;;;;;8.40;4.60;;;;;;;27.34;78.66;101018.66;21054044;28;20056;-82
2023/06/19 16:22:58;;;;;;;8.45;4.10;;;;;;;27.11;81.80;101027.06;21015362;28;20052;-80
2023/06/19 16:33:21;;;;;;;8.90;4.32;;;;;;;26.96;84.41;101040.41;20982942;28;20522;-82
2023/06/19 16:43:45;;;;;;;9.85;5.78;;;;;;;26.72;91.23;101032.50;20969024;28;20502;-82
2023/06/19 17:05:08;;;;;;;7.45;5.30;;;;;;;26.28;96.98;101021.00;20954654;28;20053;-82
2023/06/19 17:15:12;;;;;;;9.23;5.30;;;;;;;26.00;100.00;101019.50;20998134;28;20519;-82
2023/06/19 17:25:37;;;;;;;8.55;4.93;;;;;;;25.86;100.00;101049.00;20924034;28;20102;-81
2023/06/19 17:36:00;;;;;;;8.43;6.00;;;;;;;25.65;100.00;101039.09;20957960;28;20044;-81
2023/06/19 17:46:26;;;;;;;13.00;9.05;;;;;;;25.49;100.00;101032.53;20951766;28;20049;-78
2023/06/19 17:56:48;;;;;;;8.80;6.15;;;;;;;25.38;100.00;101028.47;20961880;28;20053;-79
2023/06/19 18:07:13;;;;;;;9.35;5.45;;;;;;;25.21;100.00;101009.31;20964975;28;20048;-82
2023/06/19 18:17:35;;;;;;;8.85;5.30;;;;;;;25.08;100.00;101007.19;20975438;28;20501;-80
2023/06/19 18:28:00;;;;;;;7.63;5.50;;;;;;;24.96;100.00;101025.66;20981818;28;20459;-81
2023/06/19 18:38:03;;;;;;;8.68;5.10;;;;;;;24.90;100.00;101036.69;20975682;28;20041;-79
2023/06/19 18:48:27;;;;;;;6.05;4.68;;;;;;;24.86;100.00;101029.63;20965186;28;20441;-78
2023/06/19 18:58:50;;;;;;;7.30;5.70;;;;;;;24.74;100.00;101035.53;20952476;28;20063;-81
2023/06/19 19:08:57;;;;;;;10.48;6.47;;;;;;;24.67;100.00;101050.19;20961270;28;20049;-82
2023/06/19 19:19:19;;;;;;;10.77;5.68;;;;;;;24.57;100.00;101064.97;20975935;28;20051;-81
2023/06/19 19:29:43;;;;;;;12.00;7.25;;;;;;;24.48;100.00;101065.31;20955785;28;20040;-81
2023/06/19 19:39:47;;;;;;;9.73;5.38;;;;;;;24.37;100.00;101068.41;20984273;28;20460;-81
2023/06/19 19:50:12;;;;;;;8.15;4.72;;;;;;;24.26;100.00;101076.00;20953024;28;20101;-82
2023/06/19 20:00:35;;;;;;;9.43;4.70;;;;;;;24.15;100.00;101073.69;20955992;28;20073;-80
2023/06/19 20:11:00;;;;;;;8.27;4.78;;;;;;;24.10;100.00;101086.41;20965725;28;20048;-81
2023/06/19 20:21:23;;;;;;;8.27;5.15;;;;;;;24.04;100.00;101069.56;20954475;28;20058;-81
2023/06/19 20:31:47;;;;;;;7.07;5.00;;;;;;;23.91;100.00;101066.41;20977878;28;20048;-80
2023/06/19 20:42:10;;;;;;;7.55;4.95;;;;;;;23.86;100.00;101081.00;20962629;28;20052;-79
2023/06/19 20:52:34;;;;;;;7.97;5.38;;;;;;;23.79;100.00;101081.22;20985844;28;20059;-80
2023/06/19 21:02:56;;;;;;;7.03;5.00;;;;;;;23.71;100.00;101071.59;21041690;28;20048;-82
2023/06/19 21:13:22;;;;;;;7.57;4.90;;;;;;;23.63;100.00;101087.19;20955984;28;20680;-81
2023/06/19 21:23:44;;;;;;;6.68;4.85;;;;;;;23.61;100.00;101084.53;20913214;28;20057;-81
2023/06/19 21:34:08;;;;;;;10.32;5.05;;;;;;;23.58;100.00;101089.13;20955135;28;20049;-81
2023/06/19 21:44:11;;;;;;;6.50;4.65;;;;;;;23.54;100.00;101091.03;20977852;28;20133;-81
2023/06/19 21:54:24;;;;;;;8.50;4.80;;;;;;;23.52;100.00;101073.16;21022975;28;20079;-80
2023/06/19 22:04:47;;;;;;;7.20;4.60;;;;;;;23.42;100.00;101073.44;20996532;28;20109;-81
2023/06/19 22:15:11;;;;;;;7.82;4.57;;;;;;;23.33;100.00;101084.50;21036873;28;20064;-80
2023/06/19 22:25:20;;;;;;;6.38;4.28;;;;;;;23.22;100.00;101093.84;21041070;28;20346;-80
2023/06/19 22:35:44;;;;;;;6.22;4.30;;;;;;;23.15;100.00;101087.78;20978160;28;20110;-81
2023/06/19 22:46:07;;;;;;;6.75;4.07;;;;;;;23.08;100.00;101091.59;20951886;28;20366;-80
2023/06/19 22:56:32;;;;;;;5.95;4.07;;;;;;;23.11;100.00;101079.81;20965439;28;20049;-80
2023/06/19 23:06:56;;;;;;;9.50;4.80;;;;;;;23.09;100.00;101079.00;20987841;28;20048;-80
2023/06/19 23:17:21;;;;;;;8.85;4.55;;;;;;;23.04;100.00;101058.47;20981725;28;20184;-81
2023/06/19 23:27:44;;;;;;;7.78;4.57;;;;;;;22.99;100.00;101054.16;21000027;28;20056;-81
2023/06/19 23:38:08;;;;;;;7.53;3.83;;;;;;;22.98;100.00;101053.25;20992383;28;20044;-80
2023/06/19 23:48:31;;;;;;;8.68;4.70;;;;;;;23.03;100.00;101037.88;20995914;28;20102;-80
2023/06/19 23:58:55;;;;;;;7.60;4.82;;;;;;;22.98;100.00;101049.69;20952863;28;20552;-80
